Alderpoint, California
Current Conditions -  °F | °C
As of 4:10 AM on Friday 24 Oct 2014 (Local Time) from KFOT Reporting Station
Overcast Overcast  
Wind Chill: 55°   Ceiling: 2400
Heat Index: 55°   Visibility: 3mi
Dew Point: 55°   Wind: 3mph
Humidity: 100%   Direction: 120°ESE
Pressure: 29.93"   Gusts: NA
Location:  40.18°N, 123.61°W
Report Text: KFOT 241110Z AUTO 12003KT 3SM SCT002 BKN024 OVC039 13/13 A2993 RMK AO1
Loading
Personal Weather Stations






























Interactive Weather Map
Tropical Storm Tracking
New forecast layout! Learn more

10-Day Weather Forecast

Advertisements
Track Severe Weather on mobile